sensor_id;sensor_type;location;lat;lon;timestamp;P1;durP1;ratioP1;P2;durP2;ratioP2
5026;SDS011;2532;52.480;13.354;2023-08-06T04:04:29;12.40;;;7.90;;
5026;SDS011;2532;52.480;13.354;2023-08-06T04:06:56;10.37;;;8.13;;
5026;SDS011;2532;52.480;13.354;2023-08-06T04:09:23;8.63;;;7.73;;
5026;SDS011;2532;52.480;13.354;2023-08-06T04:11:50;8.70;;;7.47;;
5026;SDS011;2532;52.480;13.354;2023-08-06T04:14:17;8.40;;;7.50;;
5026;SDS011;2532;52.480;13.354;2023-08-06T04:16:44;13.30;;;8.10;;
5026;SDS011;2532;52.480;13.354;2023-08-06T04:19:10;12.53;;;8.73;;
5026;SDS011;2532;52.480;13.354;2023-08-06T04:21:39;10.37;;;8.73;;
5026;SDS011;2532;52.480;13.354;2023-08-06T04:24:06;11.50;;;8.67;;
5026;SDS011;2532;52.480;13.354;2023-08-06T04:26:32;11.10;;;7.60;;
5026;SDS011;2532;52.480;13.354;2023-08-06T04:28:59;9.70;;;8.70;;
5026;SDS011;2532;52.480;13.354;2023-08-06T04:31:26;11.13;;;9.33;;
5026;SDS011;2532;52.480;13.354;2023-08-06T04:33:54;12.00;;;8.17;;
5026;SDS011;2532;52.480;13.354;2023-08-06T04:36:21;10.67;;;8.63;;
5026;SDS011;2532;52.480;13.354;2023-08-06T04:38:50;9.33;;;7.90;;
5026;SDS011;2532;52.480;13.354;2023-08-06T04:41:17;10.17;;;7.63;;
5026;SDS011;2532;52.480;13.354;2023-08-06T04:43:44;8.07;;;7.27;;
5026;SDS011;2532;52.480;13.354;2023-08-06T04:46:11;8.67;;;7.60;;
5026;SDS011;2532;52.480;13.354;2023-08-06T04:48:37;9.90;;;8.47;;
5026;SDS011;2532;52.480;13.354;2023-08-06T04:51:04;11.00;;;8.37;;
5026;SDS011;2532;52.480;13.354;2023-08-06T04:53:31;8.80;;;7.83;;
5026;SDS011;2532;52.480;13.354;2023-08-06T04:55:59;9.83;;;8.10;;
5026;SDS011;2532;52.480;13.354;2023-08-06T04:58:26;11.73;;;8.83;;
5026;SDS011;2532;52.480;13.354;2023-08-06T05:00:53;10.37;;;8.83;;
5026;SDS011;2532;52.480;13.354;2023-08-06T05:03:20;10.83;;;9.53;;
5026;SDS011;2532;52.480;13.354;2023-08-06T05:05:47;9.70;;;8.43;;
5026;SDS011;2532;52.480;13.354;2023-08-06T05:08:15;9.57;;;8.57;;
5026;SDS011;2532;52.480;13.354;2023-08-06T05:10:42;10.47;;;7.93;;
5026;SDS011;2532;52.480;13.354;2023-08-06T05:13:11;10.13;;;9.03;;
5026;SDS011;2532;52.480;13.354;2023-08-06T05:15:38;11.57;;;8.93;;
5026;SDS011;2532;52.480;13.354;2023-08-06T05:18:07;13.90;;;9.60;;
5026;SDS011;2532;52.480;13.354;2023-08-06T05:20:35;9.27;;;7.97;;
5026;SDS011;2532;52.480;13.354;2023-08-06T05:23:03;11.67;;;8.10;;
5026;SDS011;2532;52.480;13.354;2023-08-06T05:25:30;10.23;;;8.37;;
5026;SDS011;2532;52.480;13.354;2023-08-06T05:27:57;12.33;;;8.70;;
5026;SDS011;2532;52.480;13.354;2023-08-06T05:30:25;9.37;;;8.43;;
5026;SDS011;2532;52.480;13.354;2023-08-06T05:32:52;9.00;;;8.10;;
5026;SDS011;2532;52.480;13.354;2023-08-06T05:35:19;8.73;;;7.87;;
5026;SDS011;2532;52.480;13.354;2023-08-06T05:37:45;9.80;;;8.57;;
5026;SDS011;2532;52.480;13.354;2023-08-06T05:40:12;9.57;;;8.53;;
5026;SDS011;2532;52.480;13.354;2023-08-06T05:42:39;10.73;;;8.90;;
5026;SDS011;2532;52.480;13.354;2023-08-06T05:45:07;9.00;;;7.97;;
5026;SDS011;2532;52.480;13.354;2023-08-06T05:47:36;9.23;;;8.23;;
5026;SDS011;2532;52.480;13.354;2023-08-06T05:50:03;9.60;;;8.60;;
5026;SDS011;2532;52.480;13.354;2023-08-06T05:52:30;9.20;;;8.20;;
5026;SDS011;2532;52.480;13.354;2023-08-06T05:54:57;10.67;;;9.50;;
5026;SDS011;2532;52.480;13.354;2023-08-06T05:57:24;11.30;;;8.60;;
5026;SDS011;2532;52.480;13.354;2023-08-06T05:59:51;13.10;;;9.70;;
5026;SDS011;2532;52.480;13.354;2023-08-06T06:02:18;12.80;;;10.73;;
5026;SDS011;2532;52.480;13.354;2023-08-06T06:04:46;8.97;;;8.07;;
5026;SDS011;2532;52.480;13.354;2023-08-06T06:07:13;10.53;;;8.67;;
5026;SDS011;2532;52.480;13.354;2023-08-06T06:09:40;13.13;;;11.43;;
5026;SDS011;2532;52.480;13.354;2023-08-06T06:12:07;10.50;;;9.40;;
5026;SDS011;2532;52.480;13.354;2023-08-06T06:14:34;9.97;;;8.23;;
5026;SDS011;2532;52.480;13.354;2023-08-06T06:17:01;9.20;;;7.90;;
5026;SDS011;2532;52.480;13.354;2023-08-06T06:19:27;8.83;;;7.77;;
5026;SDS011;2532;52.480;13.354;2023-08-06T06:21:56;10.77;;;9.10;;
5026;SDS011;2532;52.480;13.354;2023-08-06T06:24:23;9.93;;;8.93;;
5026;SDS011;2532;52.480;13.354;2023-08-06T06:26:50;12.23;;;8.57;;
5026;SDS011;2532;52.480;13.354;2023-08-06T06:29:17;9.93;;;7.97;;
5026;SDS011;2532;52.480;13.354;2023-08-06T06:31:43;10.40;;;8.33;;
5026;SDS011;2532;52.480;13.354;2023-08-06T06:34:10;11.30;;;8.80;;
5026;SDS011;2532;52.480;13.354;2023-08-06T06:36:37;9.93;;;8.60;;
5026;SDS011;2532;52.480;13.354;2023-08-06T06:39:05;11.90;;;9.20;;
5026;SDS011;2532;52.480;13.354;2023-08-06T06:41:33;10.27;;;9.17;;
5026;SDS011;2532;52.480;13.354;2023-08-06T06:44:00;11.10;;;8.90;;
5026;SDS011;2532;52.480;13.354;2023-08-06T06:46:27;9.60;;;8.60;;
5026;SDS011;2532;52.480;13.354;2023-08-06T06:48:53;10.93;;;9.10;;
5026;SDS011;2532;52.480;13.354;2023-08-06T06:51:20;12.27;;;10.47;;
5026;SDS011;2532;52.480;13.354;2023-08-06T06:53:47;12.10;;;8.67;;
5026;SDS011;2532;52.480;13.354;2023-08-06T06:56:15;10.17;;;8.80;;
5026;SDS011;2532;52.480;13.354;2023-08-06T06:58:42;13.07;;;11.47;;
5026;SDS011;2532;52.480;13.354;2023-08-06T07:01:09;9.43;;;7.87;;
5026;SDS011;2532;52.480;13.354;2023-08-06T07:03:36;10.33;;;9.23;;
5026;SDS011;2532;52.480;13.354;2023-08-06T07:06:03;9.53;;;8.60;;
5026;SDS011;2532;52.480;13.354;2023-08-06T07:08:30;9.47;;;8.27;;
5026;SDS011;2532;52.480;13.354;2023-08-06T07:11:01;12.60;;;8.90;;
5026;SDS011;2532;52.480;13.354;2023-08-06T07:13:30;9.77;;;8.50;;
5026;SDS011;2532;52.480;13.354;2023-08-06T07:15:57;9.20;;;8.30;;
5026;SDS011;2532;52.480;13.354;2023-08-06T07:18:24;10.53;;;8.47;;
5026;SDS011;2532;52.480;13.354;2023-08-06T07:20:51;11.60;;;9.17;;
5026;SDS011;2532;52.480;13.354;2023-08-06T07:23:19;11.13;;;9.47;;
5026;SDS011;2532;52.480;13.354;2023-08-06T07:25:47;10.83;;;8.30;;
5026;SDS011;2532;52.480;13.354;2023-08-06T07:28:14;9.47;;;8.50;;
5026;SDS011;2532;52.480;13.354;2023-08-06T07:30:45;12.33;;;7.67;;
5026;SDS011;2532;52.480;13.354;2023-08-06T07:33:11;9.87;;;8.40;;
5026;SDS011;2532;52.480;13.354;2023-08-06T07:35:38;9.00;;;7.87;;
5026;SDS011;2532;52.480;13.354;2023-08-06T07:38:05;10.77;;;8.40;;
5026;SDS011;2532;52.480;13.354;2023-08-06T07:40:34;11.40;;;7.87;;
5026;SDS011;2532;52.480;13.354;2023-08-06T07:43:06;11.70;;;9.53;;
5026;SDS011;2532;52.480;13.354;2023-08-06T07:45:33;9.73;;;8.10;;
5026;SDS011;2532;52.480;13.354;2023-08-06T07:48:02;10.83;;;8.20;;
5026;SDS011;2532;52.480;13.354;2023-08-06T07:50:30;8.10;;;7.30;;
5026;SDS011;2532;52.480;13.354;2023-08-06T07:52:57;11.90;;;8.40;;
5026;SDS011;2532;52.480;13.354;2023-08-06T07:55:25;8.30;;;7.50;;
5026;SDS011;2532;52.480;13.354;2023-08-06T07:57:52;11.07;;;9.40;;
5026;SDS011;2532;52.480;13.354;2023-08-06T08:00:20;12.10;;;8.40;;
5026;SDS011;2532;52.480;13.354;2023-08-06T08:02:47;9.63;;;8.27;;
5026;SDS011;2532;52.480;13.354;2023-08-06T08:05:15;9.67;;;8.67;;
5026;SDS011;2532;52.480;13.354;2023-08-06T08:07:42;9.63;;;8.67;;
5026;SDS011;2532;52.480;13.354;2023-08-06T08:10:09;10.10;;;9.00;;
5026;SDS011;2532;52.480;13.354;2023-08-06T08:12:36;11.00;;;9.30;;
5026;SDS011;2532;52.480;13.354;2023-08-06T08:15:03;11.67;;;8.73;;
5026;SDS011;2532;52.480;13.354;2023-08-06T08:17:31;10.30;;;9.20;;
5026;SDS011;2532;52.480;13.354;2023-08-06T08:19:59;10.47;;;9.10;;
5026;SDS011;2532;52.480;13.354;2023-08-06T08:22:27;11.20;;;10.00;;
5026;SDS011;2532;52.480;13.354;2023-08-06T08:24:54;12.50;;;10.23;;
5026;SDS011;2532;52.480;13.354;2023-08-06T08:27:21;12.80;;;9.70;;
5026;SDS011;2532;52.480;13.354;2023-08-06T08:29:48;11.93;;;10.67;;
5026;SDS011;2532;52.480;13.354;2023-08-06T08:32:15;11.80;;;10.50;;
5026;SDS011;2532;52.480;13.354;2023-08-06T08:34:42;13.07;;;10.87;;
5026;SDS011;2532;52.480;13.354;2023-08-06T08:37:09;11.53;;;10.40;;
5026;SDS011;2532;52.480;13.354;2023-08-06T08:39:37;13.90;;;11.80;;
5026;SDS011;2532;52.480;13.354;2023-08-06T08:42:04;13.80;;;11.63;;
5026;SDS011;2532;52.480;13.354;2023-08-06T08:44:32;13.17;;;11.77;;
5026;SDS011;2532;52.480;13.354;2023-08-06T08:47:01;11.93;;;10.73;;
5026;SDS011;2532;52.480;13.354;2023-08-06T08:49:28;14.10;;;11.70;;
5026;SDS011;2532;52.480;13.354;2023-08-06T08:51:57;14.60;;;12.63;;
5026;SDS011;2532;52.480;13.354;2023-08-06T08:54:27;13.77;;;11.57;;
5026;SDS011;2532;52.480;13.354;2023-08-06T08:56:58;15.30;;;11.43;;
5026;SDS011;2532;52.480;13.354;2023-08-06T08:59:25;15.17;;;12.47;;
5026;SDS011;2532;52.480;13.354;2023-08-06T09:01:54;13.20;;;11.90;;
5026;SDS011;2532;52.480;13.354;2023-08-06T09:04:21;14.00;;;12.50;;
5026;SDS011;2532;52.480;13.354;2023-08-06T09:06:50;15.13;;;13.07;;
5026;SDS011;2532;52.480;13.354;2023-08-06T09:09:20;13.20;;;10.47;;
5026;SDS011;2532;52.480;13.354;2023-08-06T09:11:52;13.87;;;11.27;;
5026;SDS011;2532;52.480;13.354;2023-08-06T09:14:27;13.47;;;11.47;;
5026;SDS011;2532;52.480;13.354;2023-08-06T09:16:54;14.00;;;11.37;;
5026;SDS011;2532;52.480;13.354;2023-08-06T09:19:22;14.57;;;12.33;;
5026;SDS011;2532;52.480;13.354;2023-08-06T09:21:50;15.80;;;13.63;;
5026;SDS011;2532;52.480;13.354;2023-08-06T09:24:17;13.80;;;11.90;;
5026;SDS011;2532;52.480;13.354;2023-08-06T09:26:45;14.43;;;12.90;;
5026;SDS011;2532;52.480;13.354;2023-08-06T09:29:12;15.70;;;12.77;;
5026;SDS011;2532;52.480;13.354;2023-08-06T09:31:41;14.13;;;12.73;;
5026;SDS011;2532;52.480;13.354;2023-08-06T09:34:14;15.03;;;13.20;;
5026;SDS011;2532;52.480;13.354;2023-08-06T09:36:42;15.57;;;12.80;;
5026;SDS011;2532;52.480;13.354;2023-08-06T09:39:15;13.90;;;12.23;;
5026;SDS011;2532;52.480;13.354;2023-08-06T09:41:43;16.00;;;13.33;;
5026;SDS011;2532;52.480;13.354;2023-08-06T09:44:16;15.83;;;12.70;;
5026;SDS011;2532;52.480;13.354;2023-08-06T09:46:49;13.93;;;12.23;;
5026;SDS011;2532;52.480;13.354;2023-08-06T09:49:18;13.20;;;11.90;;
5026;SDS011;2532;52.480;13.354;2023-08-06T09:51:46;14.73;;;13.13;;
5026;SDS011;2532;52.480;13.354;2023-08-06T09:54:16;14.90;;;12.57;;
5026;SDS011;2532;52.480;13.354;2023-08-06T09:56:43;13.00;;;11.80;;
5026;SDS011;2532;52.480;13.354;2023-08-06T09:59:10;12.93;;;11.60;;
5026;SDS011;2532;52.480;13.354;2023-08-06T10:01:37;16.17;;;12.47;;
5026;SDS011;2532;52.480;13.354;2023-08-06T10:04:05;12.23;;;11.03;;
5026;SDS011;2532;52.480;13.354;2023-08-06T10:06:34;13.97;;;12.50;;
5026;SDS011;2532;52.480;13.354;2023-08-06T10:09:02;13.57;;;12.17;;
5026;SDS011;2532;52.480;13.354;2023-08-06T10:11:29;13.47;;;11.80;;
5026;SDS011;2532;52.480;13.354;2023-08-06T10:13:58;15.97;;;12.37;;
5026;SDS011;2532;52.480;13.354;2023-08-06T10:16:30;14.17;;;12.50;;
5026;SDS011;2532;52.480;13.354;2023-08-06T10:18:58;14.10;;;11.30;;
5026;SDS011;2532;52.480;13.354;2023-08-06T10:21:28;16.37;;;13.30;;
5026;SDS011;2532;52.480;13.354;2023-08-06T10:23:57;15.33;;;13.73;;
5026;SDS011;2532;52.480;13.354;2023-08-06T10:26:27;13.47;;;11.90;;
5026;SDS011;2532;52.480;13.354;2023-08-06T10:28:54;15.97;;;12.93;;
5026;SDS011;2532;52.480;13.354;2023-08-06T10:34:24;12.00;;;10.80;;
5026;SDS011;2532;52.480;13.354;2023-08-06T10:36:55;13.07;;;11.67;;
5026;SDS011;2532;52.480;13.354;2023-08-06T10:39:22;13.10;;;11.70;;
5026;SDS011;2532;52.480;13.354;2023-08-06T10:41:49;14.20;;;11.90;;
5026;SDS011;2532;52.480;13.354;2023-08-06T10:44:15;13.50;;;11.50;;
5026;SDS011;2532;52.480;13.354;2023-08-06T10:46:42;15.00;;;13.40;;
5026;SDS011;2532;52.480;13.354;2023-08-06T10:49:15;14.47;;;12.57;;
5026;SDS011;2532;52.480;13.354;2023-08-06T10:51:44;17.00;;;13.03;;
5026;SDS011;2532;52.480;13.354;2023-08-06T10:54:13;14.80;;;13.27;;
5026;SDS011;2532;52.480;13.354;2023-08-06T10:56:40;14.70;;;13.20;;
5026;SDS011;2532;52.480;13.354;2023-08-06T10:59:09;15.73;;;12.47;;
5026;SDS011;2532;52.480;13.354;2023-08-06T11:01:36;14.97;;;13.40;;
5026;SDS011;2532;52.480;13.354;2023-08-06T11:04:05;15.07;;;13.43;;
5026;SDS011;2532;52.480;13.354;2023-08-06T11:06:32;15.60;;;13.40;;
5026;SDS011;2532;52.480;13.354;2023-08-06T11:08:59;15.30;;;13.37;;
5026;SDS011;2532;52.480;13.354;2023-08-06T11:11:29;14.23;;;12.70;;
5026;SDS011;2532;52.480;13.354;2023-08-06T11:13:56;14.33;;;12.90;;
5026;SDS011;2532;52.480;13.354;2023-08-06T11:16:23;11.53;;;10.07;;
5026;SDS011;2532;52.480;13.354;2023-08-06T11:18:50;11.43;;;9.93;;
5026;SDS011;2532;52.480;13.354;2023-08-06T11:21:19;13.30;;;11.90;;
5026;SDS011;2532;52.480;13.354;2023-08-06T11:23:46;12.40;;;11.10;;
5026;SDS011;2532;52.480;13.354;2023-08-06T11:26:14;11.40;;;10.20;;
5026;SDS011;2532;52.480;13.354;2023-08-06T11:28:46;12.27;;;10.73;;
5026;SDS011;2532;52.480;13.354;2023-08-06T11:31:18;13.73;;;12.00;;
5026;SDS011;2532;52.480;13.354;2023-08-06T11:33:45;12.80;;;11.50;;
5026;SDS011;2532;52.480;13.354;2023-08-06T11:36:12;13.50;;;12.13;;
5026;SDS011;2532;52.480;13.354;2023-08-06T11:38:39;14.90;;;13.13;;
5026;SDS011;2532;52.480;13.354;2023-08-06T11:41:06;15.23;;;13.27;;
5026;SDS011;2532;52.480;13.354;2023-08-06T11:43:33;14.17;;;12.60;;
5026;SDS011;2532;52.480;13.354;2023-08-06T11:46:02;13.40;;;12.00;;
5026;SDS011;2532;52.480;13.354;2023-08-06T11:48:29;15.67;;;13.03;;
5026;SDS011;2532;52.480;13.354;2023-08-06T11:50:56;12.40;;;11.20;;
5026;SDS011;2532;52.480;13.354;2023-08-06T11:53:27;13.70;;;12.17;;
5026;SDS011;2532;52.480;13.354;2023-08-06T11:55:54;14.00;;;12.17;;
5026;SDS011;2532;52.480;13.354;2023-08-06T11:58:21;15.70;;;12.53;;
5026;SDS011;2532;52.480;13.354;2023-08-06T12:00:48;14.63;;;12.60;;
5026;SDS011;2532;52.480;13.354;2023-08-06T12:03:17;15.40;;;13.33;;
5026;SDS011;2532;52.480;13.354;2023-08-06T12:05:45;13.50;;;12.00;;
5026;SDS011;2532;52.480;13.354;2023-08-06T12:08:12;16.07;;;13.17;;
5026;SDS011;2532;52.480;13.354;2023-08-06T12:10:39;19.37;;;13.87;;
5026;SDS011;2532;52.480;13.354;2023-08-06T12:13:06;16.67;;;14.60;;
5026;SDS011;2532;52.480;13.354;2023-08-06T12:15:33;16.87;;;14.37;;
5026;SDS011;2532;52.480;13.354;2023-08-06T12:18:00;16.13;;;13.13;;
5026;SDS011;2532;52.480;13.354;2023-08-06T12:20:28;14.67;;;12.00;;
5026;SDS011;2532;52.480;13.354;2023-08-06T12:22:55;16.87;;;14.43;;
5026;SDS011;2532;52.480;13.354;2023-08-06T12:25:22;16.83;;;14.10;;
5026;SDS011;2532;52.480;13.354;2023-08-06T12:27:49;20.13;;;15.80;;
5026;SDS011;2532;52.480;13.354;2023-08-06T12:30:16;17.90;;;14.30;;
5026;SDS011;2532;52.480;13.354;2023-08-06T12:32:43;16.50;;;14.13;;
5026;SDS011;2532;52.480;13.354;2023-08-06T12:35:10;16.50;;;14.13;;
5026;SDS011;2532;52.480;13.354;2023-08-06T12:37:38;13.53;;;12.10;;
5026;SDS011;2532;52.480;13.354;2023-08-06T12:40:06;15.80;;;13.00;;
5026;SDS011;2532;52.480;13.354;2023-08-06T12:42:33;14.40;;;12.73;;
5026;SDS011;2532;52.480;13.354;2023-08-06T12:45:00;13.53;;;11.47;;
5026;SDS011;2532;52.480;13.354;2023-08-06T12:47:27;12.93;;;10.90;;
5026;SDS011;2532;52.480;13.354;2023-08-06T12:49:54;13.37;;;11.90;;
5026;SDS011;2532;52.480;13.354;2023-08-06T12:52:21;16.90;;;13.97;;
5026;SDS011;2532;52.480;13.354;2023-08-06T12:54:49;15.60;;;13.60;;
5026;SDS011;2532;52.480;13.354;2023-08-06T12:57:16;18.60;;;14.83;;
5026;SDS011;2532;52.480;13.354;2023-08-06T12:59:43;16.20;;;13.10;;
5026;SDS011;2532;52.480;13.354;2023-08-06T13:02:10;15.00;;;13.00;;
5026;SDS011;2532;52.480;13.354;2023-08-06T13:04:37;12.33;;;10.30;;
5026;SDS011;2532;52.480;13.354;2023-08-06T13:07:04;17.47;;;10.87;;
5026;SDS011;2532;52.480;13.354;2023-08-06T13:09:31;15.10;;;11.67;;
5026;SDS011;2532;52.480;13.354;2023-08-06T13:12:00;15.07;;;11.63;;
5026;SDS011;2532;52.480;13.354;2023-08-06T13:14:30;14.60;;;11.50;;
5026;SDS011;2532;52.480;13.354;2023-08-06T13:16:57;11.60;;;9.63;;
5026;SDS011;2532;52.480;13.354;2023-08-06T13:19:24;13.50;;;9.87;;
5026;SDS011;2532;52.480;13.354;2023-08-06T13:21:58;12.17;;;10.17;;
5026;SDS011;2532;52.480;13.354;2023-08-06T13:24:30;10.87;;;9.20;;
5026;SDS011;2532;52.480;13.354;2023-08-06T13:26:57;10.00;;;8.80;;
5026;SDS011;2532;52.480;13.354;2023-08-06T13:29:26;14.40;;;9.63;;
5026;SDS011;2532;52.480;13.354;2023-08-06T13:31:53;12.57;;;9.07;;
5026;SDS011;2532;52.480;13.354;2023-08-06T13:34:20;11.03;;;9.50;;
5026;SDS011;2532;52.480;13.354;2023-08-06T13:36:47;12.53;;;10.53;;
5026;SDS011;2532;52.480;13.354;2023-08-06T13:39:14;12.30;;;10.20;;
5026;SDS011;2532;52.480;13.354;2023-08-06T13:41:42;13.37;;;9.43;;
5026;SDS011;2532;52.480;13.354;2023-08-06T13:44:10;13.50;;;10.17;;
5026;SDS011;2532;52.480;13.354;2023-08-06T13:46:39;12.00;;;9.30;;
5026;SDS011;2532;52.480;13.354;2023-08-06T13:49:07;14.13;;;9.73;;
5026;SDS011;2532;52.480;13.354;2023-08-06T13:51:34;16.40;;;11.07;;
5026;SDS011;2532;52.480;13.354;2023-08-06T13:54:01;18.23;;;13.40;;
5026;SDS011;2532;52.480;13.354;2023-08-06T13:56:28;13.37;;;10.47;;
5026;SDS011;2532;52.480;13.354;2023-08-06T13:58:55;12.37;;;10.70;;
5026;SDS011;2532;52.480;13.354;2023-08-06T14:01:24;16.70;;;11.83;;
5026;SDS011;2532;52.480;13.354;2023-08-06T14:03:50;16.73;;;10.63;;
5026;SDS011;2532;52.480;13.354;2023-08-06T14:06:18;13.87;;;11.57;;
5026;SDS011;2532;52.480;13.354;2023-08-06T14:08:45;12.73;;;10.90;;
5026;SDS011;2532;52.480;13.354;2023-08-06T14:11:12;13.40;;;12.00;;
5026;SDS011;2532;52.480;13.354;2023-08-06T14:13:39;14.90;;;11.13;;
5026;SDS011;2532;52.480;13.354;2023-08-06T14:16:06;15.70;;;12.80;;
5026;SDS011;2532;52.480;13.354;2023-08-06T14:18:34;16.90;;;11.53;;
5026;SDS011;2532;52.480;13.354;2023-08-06T14:21:03;13.17;;;9.80;;
5026;SDS011;2532;52.480;13.354;2023-08-06T14:23:30;12.10;;;10.00;;
5026;SDS011;2532;52.480;13.354;2023-08-06T14:25:57;12.80;;;11.10;;
5026;SDS011;2532;52.480;13.354;2023-08-06T14:28:24;14.60;;;10.00;;
5026;SDS011;2532;52.480;13.354;2023-08-06T14:30:51;13.60;;;10.20;;
5026;SDS011;2532;52.480;13.354;2023-08-06T14:33:18;11.53;;;8.50;;
5026;SDS011;2532;52.480;13.354;2023-08-06T14:35:46;11.50;;;9.10;;
5026;SDS011;2532;52.480;13.354;2023-08-06T14:38:13;12.93;;;9.40;;
5026;SDS011;2532;52.480;13.354;2023-08-06T14:40:40;10.80;;;9.27;;
5026;SDS011;2532;52.480;13.354;2023-08-06T14:43:07;11.47;;;9.03;;
5026;SDS011;2532;52.480;13.354;2023-08-06T14:45:37;10.53;;;8.90;;
5026;SDS011;2532;52.480;13.354;2023-08-06T14:48:04;9.07;;;7.40;;
5026;SDS011;2532;52.480;13.354;2023-08-06T14:50:31;9.90;;;8.33;;
5026;SDS011;2532;52.480;13.354;2023-08-06T14:52:59;11.50;;;8.67;;
5026;SDS011;2532;52.480;13.354;2023-08-06T14:55:27;8.67;;;6.70;;
5026;SDS011;2532;52.480;13.354;2023-08-06T14:57:54;7.60;;;6.10;;
5026;SDS011;2532;52.480;13.354;2023-08-06T15:00:21;6.87;;;6.17;;
5026;SDS011;2532;52.480;13.354;2023-08-06T15:02:48;7.30;;;6.60;;
5026;SDS011;2532;52.480;13.354;2023-08-06T15:05:15;7.23;;;6.30;;
5026;SDS011;2532;52.480;13.354;2023-08-06T15:07:42;7.93;;;6.43;;
5026;SDS011;2532;52.480;13.354;2023-08-06T15:10:11;10.57;;;7.30;;
5026;SDS011;2532;52.480;13.354;2023-08-06T15:12:37;8.73;;;6.90;;
5026;SDS011;2532;52.480;13.354;2023-08-06T15:15:06;10.40;;;6.83;;
5026;SDS011;2532;52.480;13.354;2023-08-06T15:17:34;8.87;;;7.17;;
5026;SDS011;2532;52.480;13.354;2023-08-06T15:20:00;10.73;;;8.53;;
5026;SDS011;2532;52.480;13.354;2023-08-06T15:22:28;8.13;;;7.33;;
5026;SDS011;2532;52.480;13.354;2023-08-06T15:24:56;7.30;;;6.60;;
5026;SDS011;2532;52.480;13.354;2023-08-06T15:27:25;10.67;;;7.10;;
5026;SDS011;2532;52.480;13.354;2023-08-06T15:29:52;7.03;;;6.30;;
5026;SDS011;2532;52.480;13.354;2023-08-06T15:32:19;8.40;;;6.60;;
5026;SDS011;2532;52.480;13.354;2023-08-06T15:34:47;8.00;;;5.60;;
5026;SDS011;2532;52.480;13.354;2023-08-06T15:37:14;6.67;;;5.40;;
5026;SDS011;2532;52.480;13.354;2023-08-06T15:39:42;7.77;;;5.30;;
5026;SDS011;2532;52.480;13.354;2023-08-06T15:42:09;6.90;;;4.67;;
5026;SDS011;2532;52.480;13.354;2023-08-06T15:44:37;8.30;;;5.50;;
5026;SDS011;2532;52.480;13.354;2023-08-06T15:47:04;6.63;;;4.97;;
5026;SDS011;2532;52.480;13.354;2023-08-06T15:49:31;7.23;;;4.97;;
5026;SDS011;2532;52.480;13.354;2023-08-06T15:51:58;6.63;;;5.20;;
5026;SDS011;2532;52.480;13.354;2023-08-06T15:54:25;6.87;;;5.33;;
5026;SDS011;2532;52.480;13.354;2023-08-06T15:56:52;7.83;;;5.20;;
5026;SDS011;2532;52.480;13.354;2023-08-06T15:59:22;6.60;;;5.17;;
5026;SDS011;2532;52.480;13.354;2023-08-06T16:01:51;9.90;;;6.07;;
5026;SDS011;2532;52.480;13.354;2023-08-06T16:04:19;7.07;;;5.20;;
5026;SDS011;2532;52.480;13.354;2023-08-06T16:06:46;11.80;;;6.70;;
5026;SDS011;2532;52.480;13.354;2023-08-06T16:09:13;6.73;;;5.10;;
5026;SDS011;2532;52.480;13.354;2023-08-06T16:11:40;11.30;;;9.00;;
5026;SDS011;2532;52.480;13.354;2023-08-06T16:14:07;8.47;;;6.20;;
5026;SDS011;2532;52.480;13.354;2023-08-06T16:16:34;6.20;;;5.57;;
5026;SDS011;2532;52.480;13.354;2023-08-06T16:19:03;7.50;;;5.77;;
5026;SDS011;2532;52.480;13.354;2023-08-06T16:21:30;9.80;;;6.17;;
5026;SDS011;2532;52.480;13.354;2023-08-06T16:24:00;7.77;;;6.40;;
5026;SDS011;2532;52.480;13.354;2023-08-06T16:26:29;9.63;;;5.70;;
5026;SDS011;2532;52.480;13.354;2023-08-06T16:28:57;9.37;;;6.33;;
5026;SDS011;2532;52.480;13.354;2023-08-06T16:31:24;11.83;;;8.53;;
5026;SDS011;2532;52.480;13.354;2023-08-06T16:33:51;7.40;;;5.57;;
5026;SDS011;2532;52.480;13.354;2023-08-06T16:36:19;8.07;;;6.43;;
5026;SDS011;2532;52.480;13.354;2023-08-06T16:38:46;6.63;;;5.20;;
5026;SDS011;2532;52.480;13.354;2023-08-06T16:41:14;7.57;;;5.40;;
5026;SDS011;2532;52.480;13.354;2023-08-06T16:43:42;7.47;;;5.57;;
5026;SDS011;2532;52.480;13.354;2023-08-06T16:46:09;9.10;;;5.40;;
5026;SDS011;2532;52.480;13.354;2023-08-06T16:48:36;8.23;;;5.53;;
5026;SDS011;2532;52.480;13.354;2023-08-06T16:51:03;5.57;;;4.53;;
5026;SDS011;2532;52.480;13.354;2023-08-06T16:53:31;8.80;;;5.03;;
5026;SDS011;2532;52.480;13.354;2023-08-06T16:55:58;6.10;;;5.50;;
5026;SDS011;2532;52.480;13.354;2023-08-06T16:58:27;8.10;;;6.00;;
5026;SDS011;2532;52.480;13.354;2023-08-06T17:00:54;7.80;;;5.93;;
5026;SDS011;2532;52.480;13.354;2023-08-06T17:03:25;7.20;;;5.30;;
5026;SDS011;2532;52.480;13.354;2023-08-06T17:05:51;6.73;;;4.90;;
5026;SDS011;2532;52.480;13.354;2023-08-06T17:08:18;8.50;;;5.67;;
5026;SDS011;2532;52.480;13.354;2023-08-06T17:10:47;8.50;;;4.57;;
5026;SDS011;2532;52.480;13.354;2023-08-06T17:13:14;11.13;;;7.73;;
5026;SDS011;2532;52.480;13.354;2023-08-06T17:15:41;16.20;;;10.63;;
5026;SDS011;2532;52.480;13.354;2023-08-06T17:18:08;12.53;;;6.00;;
5026;SDS011;2532;52.480;13.354;2023-08-06T17:20:36;8.03;;;5.83;;
5026;SDS011;2532;52.480;13.354;2023-08-06T17:23:03;7.83;;;5.30;;
5026;SDS011;2532;52.480;13.354;2023-08-06T17:25:30;8.20;;;6.23;;
5026;SDS011;2532;52.480;13.354;2023-08-06T17:28:00;7.87;;;4.73;;
5026;SDS011;2532;52.480;13.354;2023-08-06T17:30:28;8.50;;;5.70;;
5026;SDS011;2532;52.480;13.354;2023-08-06T17:32:56;6.00;;;5.10;;
5026;SDS011;2532;52.480;13.354;2023-08-06T17:35:23;7.23;;;6.37;;
5026;SDS011;2532;52.480;13.354;2023-08-06T17:37:50;6.83;;;5.20;;
5026;SDS011;2532;52.480;13.354;2023-08-06T17:40:18;7.00;;;5.00;;
5026;SDS011;2532;52.480;13.354;2023-08-06T17:42:45;6.30;;;5.17;;
5026;SDS011;2532;52.480;13.354;2023-08-06T17:45:15;10.60;;;4.73;;
5026;SDS011;2532;52.480;13.354;2023-08-06T17:47:42;9.50;;;4.90;;
5026;SDS011;2532;52.480;13.354;2023-08-06T17:50:09;7.17;;;4.93;;
5026;SDS011;2532;52.480;13.354;2023-08-06T17:52:41;7.53;;;5.27;;
5026;SDS011;2532;52.480;13.354;2023-08-06T17:55:14;7.57;;;5.30;;
5026;SDS011;2532;52.480;13.354;2023-08-06T17:57:41;7.93;;;5.30;;
5026;SDS011;2532;52.480;13.354;2023-08-06T18:00:08;8.90;;;5.63;;
5026;SDS011;2532;52.480;13.354;2023-08-06T18:02:37;9.30;;;5.40;;
5026;SDS011;2532;52.480;13.354;2023-08-06T18:05:04;7.50;;;5.80;;
5026;SDS011;2532;52.480;13.354;2023-08-06T18:07:32;13.37;;;9.13;;
5026;SDS011;2532;52.480;13.354;2023-08-06T18:09:58;7.40;;;5.37;;
5026;SDS011;2532;52.480;13.354;2023-08-06T18:12:25;9.57;;;4.70;;
5026;SDS011;2532;52.480;13.354;2023-08-06T18:14:54;6.63;;;4.90;;
5026;SDS011;2532;52.480;13.354;2023-08-06T18:17:23;7.37;;;5.23;;
5026;SDS011;2532;52.480;13.354;2023-08-06T18:19:51;7.10;;;5.70;;
5026;SDS011;2532;52.480;13.354;2023-08-06T18:22:18;14.90;;;5.50;;
5026;SDS011;2532;52.480;13.354;2023-08-06T18:24:45;7.13;;;5.70;;
5026;SDS011;2532;52.480;13.354;2023-08-06T18:27:12;9.50;;;6.03;;
5026;SDS011;2532;52.480;13.354;2023-08-06T18:29:42;6.40;;;5.10;;
5026;SDS011;2532;52.480;13.354;2023-08-06T18:32:09;6.47;;;5.10;;
5026;SDS011;2532;52.480;13.354;2023-08-06T18:34:36;7.30;;;5.17;;
5026;SDS011;2532;52.480;13.354;2023-08-06T18:37:05;7.90;;;5.23;;
5026;SDS011;2532;52.480;13.354;2023-08-06T18:39:32;5.97;;;5.17;;
5026;SDS011;2532;52.480;13.354;2023-08-06T18:42:01;7.60;;;5.47;;
5026;SDS011;2532;52.480;13.354;2023-08-06T18:44:29;9.40;;;5.50;;
5026;SDS011;2532;52.480;13.354;2023-08-06T18:46:56;7.77;;;5.90;;
5026;SDS011;2532;52.480;13.354;2023-08-06T18:49:23;7.90;;;5.23;;
5026;SDS011;2532;52.480;13.354;2023-08-06T18:51:49;6.33;;;5.50;;
5026;SDS011;2532;52.480;13.354;2023-08-06T18:54:18;8.20;;;5.43;;
5026;SDS011;2532;52.480;13.354;2023-08-06T18:56:44;12.30;;;5.63;;